createdAt,value
2022-10-23T00:00:03.962Z,979.95
2022-10-23T00:01:03.847Z,979.86
2022-10-23T00:02:03.936Z,979.82
2022-10-23T00:03:02.953Z,979.89
2022-10-23T00:04:02.977Z,979.82
2022-10-23T00:05:02.988Z,979.85
2022-10-23T00:06:03.061Z,979.89
2022-10-23T00:07:03.125Z,979.89
2022-10-23T00:08:03.146Z,979.85
2022-10-23T00:09:03.251Z,979.82
2022-10-23T00:10:03.736Z,979.98
2022-10-23T00:11:03.638Z,979.89
2022-10-23T00:12:03.806Z,979.87
2022-10-23T00:13:03.758Z,979.90
2022-10-23T00:14:02.933Z,979.82
2022-10-23T00:15:03.080Z,979.90
2022-10-23T00:16:03.174Z,979.90
2022-10-23T00:17:03.307Z,979.85
2022-10-23T00:18:03.287Z,979.85
2022-10-23T00:19:03.377Z,979.85
2022-10-23T00:20:03.403Z,979.79
2022-10-23T00:21:03.352Z,979.82
2022-10-23T00:22:03.390Z,979.79
2022-10-23T00:23:03.491Z,979.82
2022-10-23T00:24:03.600Z,979.73
2022-10-23T00:25:03.637Z,979.82
2022-10-23T00:26:03.595Z,979.71
2022-10-23T00:27:03.620Z,979.79
2022-10-23T00:28:03.720Z,979.85
2022-10-23T00:29:03.787Z,979.90
2022-10-23T00:30:03.910Z,979.79
2022-10-23T00:31:03.797Z,979.85
2022-10-23T00:32:03.869Z,979.93
2022-10-23T00:33:03.872Z,979.90
2022-10-23T00:34:02.974Z,979.93
2022-10-23T00:35:02.964Z,979.85
2022-10-23T00:36:02.996Z,979.93
2022-10-23T00:37:03.078Z,979.87
2022-10-23T00:38:03.027Z,979.93
2022-10-23T00:39:03.037Z,979.87
2022-10-23T00:40:03.184Z,979.82
2022-10-23T00:41:03.468Z,979.74
2022-10-23T00:42:03.518Z,979.87
2022-10-23T00:43:03.564Z,979.98
2022-10-23T00:44:03.696Z,979.98
2022-10-23T00:45:03.883Z,980.04
2022-10-23T00:46:03.837Z,979.87
2022-10-23T00:47:02.981Z,979.87
2022-10-23T00:48:03.268Z,979.80
2022-10-23T00:49:03.504Z,979.85
2022-10-23T00:50:02.909Z,979.96
2022-10-23T00:51:02.937Z,979.87
2022-10-23T00:52:02.922Z,979.87
2022-10-23T00:53:02.985Z,979.93
2022-10-23T00:54:24.610Z,979.87
2022-10-23T00:55:03.139Z,979.90
2022-10-23T00:56:03.191Z,979.90
2022-10-23T00:57:03.343Z,979.90
2022-10-23T00:58:03.404Z,979.80
2022-10-23T00:59:03.466Z,979.90
2022-10-23T01:00:03.388Z,979.71
2022-10-23T01:01:03.464Z,979.87
2022-10-23T01:02:03.726Z,979.93
2022-10-23T01:03:03.379Z,979.77
2022-10-23T01:04:03.549Z,979.77
2022-10-23T01:05:03.584Z,980.01
2022-10-23T01:06:03.711Z,979.77
2022-10-23T01:07:03.614Z,979.65
2022-10-23T01:08:03.765Z,979.87
2022-10-23T01:09:02.934Z,979.65
2022-10-23T01:10:02.877Z,979.71
2022-10-23T01:11:03.623Z,979.74
2022-10-23T01:12:03.665Z,979.68
2022-10-23T01:13:03.658Z,979.82
2022-10-23T01:15:03.523Z,979.80
2022-10-23T01:16:03.561Z,979.77
2022-10-23T01:17:03.634Z,979.65
2022-10-23T01:18:03.585Z,979.65
2022-10-23T01:19:03.560Z,979.68
2022-10-23T01:20:03.757Z,979.65
2022-10-23T01:21:03.841Z,979.68
2022-10-23T01:22:02.985Z,979.63
2022-10-23T01:23:03.133Z,979.57
2022-10-23T01:24:03.126Z,979.54
2022-10-23T01:25:03.268Z,979.68
2022-10-23T01:26:03.338Z,979.66
2022-10-23T01:27:03.350Z,979.68
2022-10-23T01:28:03.374Z,979.57
2022-10-23T01:29:03.539Z,979.74
2022-10-23T01:30:03.596Z,979.66
2022-10-23T01:31:03.808Z,979.68
2022-10-23T01:32:03.815Z,979.83
2022-10-23T01:33:03.885Z,979.71
2022-10-23T01:34:03.055Z,979.74
2022-10-23T01:35:03.023Z,979.51
2022-10-23T01:36:03.054Z,979.77
2022-10-23T01:37:03.166Z,979.66
2022-10-23T01:38:03.171Z,979.69
2022-10-23T01:40:03.399Z,979.57
2022-10-23T01:41:03.507Z,979.57
2022-10-23T01:42:03.501Z,979.60
2022-10-23T01:43:03.499Z,979.52
2022-10-23T01:44:03.560Z,979.60
2022-10-23T01:45:03.676Z,979.66
2022-10-23T01:46:03.730Z,979.83
2022-10-23T01:47:03.804Z,979.63
2022-10-23T01:48:03.766Z,979.66
2022-10-23T01:49:03.961Z,979.60
2022-10-23T01:50:03.918Z,979.63
2022-10-23T01:51:02.969Z,979.49
2022-10-23T01:52:03.004Z,979.46
2022-10-23T01:53:03.145Z,979.52
2022-10-23T01:54:03.131Z,979.58
2022-10-23T01:55:03.230Z,979.52
2022-10-23T01:56:03.240Z,979.55
2022-10-23T01:57:03.348Z,979.44
2022-10-23T01:58:03.404Z,979.35
2022-10-23T01:59:03.543Z,979.52
2022-10-23T02:00:03.588Z,979.46
2022-10-23T02:01:03.925Z,979.61
2022-10-23T02:02:04.127Z,979.49
2022-10-23T02:03:03.861Z,979.58
2022-10-23T02:04:02.959Z,979.61
2022-10-23T02:05:03.021Z,979.38
2022-10-23T02:06:03.090Z,979.49
2022-10-23T02:07:03.160Z,979.44
2022-10-23T02:08:03.232Z,979.35
2022-10-23T02:09:03.358Z,979.49
2022-10-23T02:10:03.440Z,979.50
2022-10-23T02:11:03.544Z,979.30
2022-10-23T02:12:03.553Z,979.35
2022-10-23T02:13:03.660Z,979.38
2022-10-23T02:14:03.651Z,979.38
2022-10-23T02:15:03.833Z,979.10
2022-10-23T02:16:03.230Z,979.30
2022-10-23T02:17:03.311Z,979.35
2022-10-23T02:18:03.471Z,979.30
2022-10-23T02:19:03.467Z,979.27
2022-10-23T02:20:03.615Z,979.33
2022-10-23T02:21:03.772Z,979.33
2022-10-23T02:22:03.773Z,979.16
2022-10-23T02:23:03.778Z,979.24
2022-10-23T02:24:02.895Z,979.07
2022-10-23T02:25:03.024Z,979.16
2022-10-23T02:26:03.062Z,979.07
2022-10-23T02:27:03.507Z,979.10
2022-10-23T02:28:03.629Z,978.96
2022-10-23T02:29:06.441Z,979.02
2022-10-23T02:30:03.680Z,978.99
2022-10-23T02:31:03.799Z,979.08
2022-10-23T02:32:03.788Z,978.99
2022-10-23T02:33:02.956Z,978.99
2022-10-23T02:34:02.974Z,978.79
2022-10-23T02:35:03.092Z,978.93
2022-10-23T02:36:03.585Z,978.99
2022-10-23T02:37:02.944Z,978.85
2022-10-23T02:38:02.937Z,978.82
2022-10-23T02:39:03.009Z,978.88
2022-10-23T02:40:03.000Z,978.96
2022-10-23T02:41:03.115Z,978.88
2022-10-23T02:42:03.435Z,978.85
2022-10-23T02:43:03.587Z,978.88
2022-10-23T02:44:03.530Z,978.88
2022-10-23T02:45:03.617Z,978.71
2022-10-23T02:46:03.700Z,978.99
2022-10-23T02:47:03.818Z,978.93
2022-10-23T02:48:02.965Z,978.99
2022-10-23T02:49:03.040Z,978.96
2022-10-23T02:50:03.062Z,978.91
2022-10-23T02:51:03.100Z,978.96
2022-10-23T02:52:03.216Z,978.82
2022-10-23T02:53:03.245Z,978.76
2022-10-23T02:54:03.389Z,978.85
2022-10-23T02:55:03.405Z,978.82
2022-10-23T02:56:03.492Z,978.76
2022-10-23T02:57:03.576Z,978.90
2022-10-23T02:58:03.576Z,978.85
2022-10-23T02:59:03.451Z,978.87
2022-10-23T03:00:03.509Z,978.82
2022-10-23T03:01:03.764Z,978.93
2022-10-23T03:02:04.129Z,979.02
2022-10-23T03:03:03.722Z,978.96
2022-10-23T03:04:04.751Z,978.90
2022-10-23T03:05:03.849Z,978.90
2022-10-23T03:06:03.868Z,979.07
2022-10-23T03:07:02.947Z,978.99
2022-10-23T03:08:02.934Z,979.02
2022-10-23T03:09:03.027Z,978.93
2022-10-23T03:10:03.076Z,978.96
2022-10-23T03:11:03.078Z,978.96
2022-10-23T03:12:03.091Z,979.01
2022-10-23T03:13:03.456Z,978.84
2022-10-23T03:14:03.493Z,978.96
2022-10-23T03:15:03.727Z,979.04
2022-10-23T03:16:03.793Z,978.79
2022-10-23T03:17:03.869Z,978.99
2022-10-23T03:18:03.926Z,978.96
2022-10-23T03:19:03.076Z,978.90
2022-10-23T03:20:03.050Z,978.84
2022-10-23T03:21:03.069Z,978.79
2022-10-23T03:22:03.175Z,978.73
2022-10-23T03:23:03.282Z,978.84
2022-10-23T03:24:03.320Z,978.76
2022-10-23T03:25:03.287Z,978.79
2022-10-23T03:26:03.373Z,978.87
2022-10-23T03:27:03.437Z,978.90
2022-10-23T03:28:03.439Z,978.90
2022-10-23T03:29:03.550Z,978.87
2022-10-23T03:30:03.572Z,978.93
2022-10-23T03:31:03.584Z,978.90
2022-10-23T03:32:03.612Z,978.87
2022-10-23T03:33:03.599Z,978.93
2022-10-23T03:34:08.396Z,978.79
2022-10-23T03:35:03.753Z,978.90
2022-10-23T03:36:03.769Z,978.90
2022-10-23T03:37:02.921Z,978.93
2022-10-23T03:38:03.098Z,978.93
2022-10-23T03:39:03.131Z,978.99
2022-10-23T03:40:03.790Z,978.96
2022-10-23T03:41:03.889Z,978.96
2022-10-23T03:42:02.893Z,978.96
2022-10-23T03:43:02.924Z,978.93
2022-10-23T03:45:03.009Z,978.99
2022-10-23T03:46:03.045Z,979.05
2022-10-23T03:47:03.165Z,979.10
2022-10-23T03:48:03.279Z,978.99
2022-10-23T03:49:03.300Z,978.99
2022-10-23T03:50:03.317Z,978.94
2022-10-23T03:51:03.319Z,979.02
2022-10-23T03:52:03.505Z,978.88
2022-10-23T03:53:03.580Z,978.99
2022-10-23T03:54:03.587Z,978.94
2022-10-23T03:55:03.713Z,978.94
2022-10-23T03:56:03.876Z,978.82
2022-10-23T03:57:02.944Z,978.80
2022-10-23T03:58:02.913Z,978.97
2022-10-23T03:59:03.035Z,978.74
2022-10-23T04:00:03.005Z,978.77
2022-10-23T04:01:03.220Z,978.97
2022-10-23T04:02:03.445Z,978.83
2022-10-23T04:03:03.166Z,978.77
2022-10-23T04:04:03.188Z,978.60
2022-10-23T04:05:03.343Z,978.74
2022-10-23T04:06:03.343Z,978.69
2022-10-23T04:07:03.441Z,978.74
2022-10-23T04:08:03.426Z,978.63
2022-10-23T04:09:03.684Z,978.88
2022-10-23T04:10:03.543Z,978.86
2022-10-23T04:11:03.764Z,978.74
2022-10-23T04:12:03.668Z,978.74
2022-10-23T04:13:03.704Z,978.71
2022-10-23T04:14:03.723Z,978.89
2022-10-23T04:15:03.787Z,978.89
2022-10-23T04:16:03.747Z,978.91
2022-10-23T04:17:03.886Z,978.89
2022-10-23T04:18:02.918Z,978.91
2022-10-23T04:19:03.291Z,978.86
2022-10-23T04:20:03.130Z,978.86
2022-10-23T04:21:03.069Z,978.89
2022-10-23T04:22:03.129Z,978.83
2022-10-23T04:23:03.156Z,978.83
2022-10-23T04:24:03.156Z,978.92
2022-10-23T04:25:03.442Z,978.83
2022-10-23T04:26:03.441Z,978.80
2022-10-23T04:27:03.553Z,978.86
2022-10-23T04:28:03.559Z,978.92
2022-10-23T04:29:03.726Z,978.83
2022-10-23T04:30:03.711Z,978.80
2022-10-23T04:31:03.733Z,978.80
2022-10-23T04:32:03.893Z,978.86
2022-10-23T04:33:02.958Z,978.80
2022-10-23T04:34:03.220Z,978.75
2022-10-23T04:35:03.085Z,978.77
2022-10-23T04:36:03.199Z,978.80
2022-10-23T04:37:03.155Z,978.80
2022-10-23T04:38:03.166Z,978.75
2022-10-23T04:39:03.339Z,978.89
2022-10-23T04:40:03.359Z,978.86
2022-10-23T04:41:03.582Z,978.89
2022-10-23T04:42:03.578Z,978.83
2022-10-23T04:43:03.623Z,978.86
2022-10-23T04:44:03.616Z,978.86
2022-10-23T04:45:03.624Z,978.89
2022-10-23T04:46:03.758Z,978.89
2022-10-23T04:47:03.864Z,978.92
2022-10-23T04:48:02.888Z,978.83
2022-10-23T04:49:03.019Z,978.95
2022-10-23T04:50:03.062Z,978.83
2022-10-23T04:51:03.074Z,978.86
2022-10-23T04:52:03.145Z,978.81
2022-10-23T04:53:03.161Z,978.78
2022-10-23T04:54:03.076Z,978.78
2022-10-23T04:55:03.342Z,978.75
2022-10-23T04:56:03.326Z,978.75
2022-10-23T04:57:03.448Z,978.61
2022-10-23T04:58:03.341Z,978.78
2022-10-23T04:59:03.432Z,978.81
2022-10-23T05:00:03.349Z,978.73
2022-10-23T05:01:03.494Z,978.81
2022-10-23T05:02:03.480Z,978.75
2022-10-23T05:03:03.426Z,978.78
2022-10-23T05:04:03.435Z,978.75
2022-10-23T05:05:03.400Z,978.78
2022-10-23T05:06:03.308Z,978.81
2022-10-23T05:07:03.307Z,978.78
2022-10-23T05:08:03.389Z,978.81
2022-10-23T05:09:03.418Z,978.78
2022-10-23T05:10:03.342Z,978.67
2022-10-23T05:11:03.431Z,978.67
2022-10-23T05:12:03.360Z,978.67
2022-10-23T05:13:03.442Z,978.67
2022-10-23T05:14:03.516Z,978.61
2022-10-23T05:15:03.504Z,978.56
2022-10-23T05:16:03.544Z,978.61
2022-10-23T05:17:03.578Z,978.50
2022-10-23T05:18:03.532Z,978.53
2022-10-23T05:19:03.492Z,978.56
2022-10-23T05:20:03.540Z,978.64
2022-10-23T05:21:03.514Z,978.67
2022-10-23T05:22:03.447Z,978.70
2022-10-23T05:23:03.502Z,978.62
2022-10-23T05:24:03.451Z,978.65
2022-10-23T05:25:03.523Z,978.70
2022-10-23T05:26:03.077Z,978.70
2022-10-23T05:27:03.024Z,978.79
2022-10-23T05:28:03.169Z,978.62
2022-10-23T05:29:03.034Z,978.71
2022-10-23T05:30:03.099Z,978.79
2022-10-23T05:31:03.096Z,978.74
2022-10-23T05:32:03.190Z,978.65
2022-10-23T05:33:03.098Z,978.71
2022-10-23T05:34:03.167Z,978.62
2022-10-23T05:35:03.038Z,978.54
2022-10-23T05:36:03.132Z,978.57
2022-10-23T05:37:03.178Z,978.54
2022-10-23T05:38:03.132Z,978.74
2022-10-23T05:39:03.065Z,978.68
2022-10-23T05:40:03.140Z,978.51
2022-10-23T05:41:03.061Z,978.51
2022-10-23T05:42:03.106Z,978.65
2022-10-23T05:43:03.055Z,978.77
2022-10-23T05:44:03.108Z,978.71
2022-10-23T05:45:03.193Z,978.71
2022-10-23T05:46:03.090Z,978.71
2022-10-23T05:47:03.224Z,978.71
2022-10-23T05:48:22.710Z,978.69
2022-10-23T05:49:03.337Z,978.88
2022-10-23T05:50:03.195Z,978.74
2022-10-23T05:51:03.296Z,978.74
2022-10-23T05:52:03.667Z,978.72
2022-10-23T05:53:03.724Z,978.72
2022-10-23T05:54:03.901Z,978.72
2022-10-23T05:55:02.977Z,978.72
2022-10-23T05:56:02.907Z,978.77
2022-10-23T05:57:03.157Z,978.77
2022-10-23T05:58:03.052Z,978.83
2022-10-23T05:59:03.099Z,978.66
2022-10-23T06:00:03.153Z,978.66
2022-10-23T06:01:03.232Z,978.63
2022-10-23T06:02:03.518Z,978.69
2022-10-23T06:03:03.109Z,978.63
2022-10-23T06:04:03.125Z,978.80
2022-10-23T06:05:03.209Z,978.75
2022-10-23T06:06:03.237Z,978.80
2022-10-23T06:07:03.289Z,978.69
2022-10-23T06:08:03.281Z,978.75
2022-10-23T06:09:03.268Z,978.77
2022-10-23T06:10:03.299Z,978.77
2022-10-23T06:11:03.267Z,978.86
2022-10-23T06:12:03.315Z,978.72
2022-10-23T06:13:03.273Z,978.78
2022-10-23T06:14:03.213Z,978.66
2022-10-23T06:15:03.239Z,978.72
2022-10-23T06:16:03.241Z,978.69
2022-10-23T06:17:03.273Z,978.63
2022-10-23T06:18:03.318Z,978.72
2022-10-23T06:19:03.558Z,978.72
2022-10-23T06:20:03.606Z,978.83
2022-10-23T06:21:03.746Z,978.69
2022-10-23T06:22:03.836Z,978.69
2022-10-23T06:23:03.709Z,978.72
2022-10-23T06:24:03.893Z,978.58
2022-10-23T06:25:02.949Z,978.63
2022-10-23T06:26:03.081Z,978.66
2022-10-23T06:27:03.339Z,978.60
2022-10-23T06:28:03.379Z,978.69
2022-10-23T06:29:03.376Z,978.60
2022-10-23T06:30:03.407Z,978.77
2022-10-23T06:31:03.452Z,978.68
2022-10-23T06:32:03.431Z,978.63
2022-10-23T06:33:06.596Z,978.66
2022-10-23T06:34:03.328Z,978.63
2022-10-23T06:35:03.426Z,978.63
2022-10-23T06:36:03.415Z,978.54
2022-10-23T06:37:03.378Z,978.62
2022-10-23T06:38:03.360Z,978.59
2022-10-23T06:39:03.482Z,978.56
2022-10-23T06:40:03.552Z,978.67
2022-10-23T06:41:03.579Z,978.40
2022-10-23T06:42:03.622Z,978.50
2022-10-23T06:43:03.613Z,978.56
2022-10-23T06:44:03.485Z,978.50
2022-10-23T06:45:07.389Z,978.42
2022-10-23T06:46:03.581Z,978.64
2022-10-23T06:47:03.613Z,978.55
2022-10-23T06:48:03.581Z,978.46
2022-10-23T06:49:03.593Z,978.44
2022-10-23T06:50:03.690Z,978.49
2022-10-23T06:51:03.776Z,978.44
2022-10-23T06:52:03.828Z,978.59
2022-10-23T06:53:03.761Z,978.45
2022-10-23T06:54:03.865Z,978.44
2022-10-23T06:55:02.990Z,978.42
2022-10-23T06:56:03.071Z,978.47
2022-10-23T06:57:03.034Z,978.49
2022-10-23T06:58:03.099Z,978.49
2022-10-23T06:59:03.164Z,978.48
2022-10-23T07:00:03.143Z,978.37
2022-10-23T07:01:03.463Z,978.42
2022-10-23T07:02:03.147Z,978.44
2022-10-23T07:03:03.076Z,978.44
2022-10-23T07:04:03.194Z,978.30
2022-10-23T07:05:03.234Z,978.41
2022-10-23T07:06:03.292Z,978.48
2022-10-23T07:07:03.244Z,978.51
2022-10-23T07:08:03.076Z,978.53
2022-10-23T07:09:02.961Z,978.70
2022-10-23T07:10:03.639Z,978.47
2022-10-23T07:11:03.448Z,978.58
2022-10-23T07:12:03.381Z,978.61
2022-10-23T07:13:03.280Z,978.61
2022-10-23T07:14:03.379Z,978.55
2022-10-23T07:15:03.261Z,978.55
2022-10-23T07:16:03.775Z,978.52
2022-10-23T07:17:03.868Z,978.42
2022-10-23T07:18:03.815Z,978.55
2022-10-23T07:19:02.937Z,978.49
2022-10-23T07:20:03.014Z,978.49
2022-10-23T07:21:02.962Z,978.49
2022-10-23T07:22:03.065Z,978.36
2022-10-23T07:23:03.121Z,978.49
2022-10-23T07:24:03.063Z,978.46
2022-10-23T07:25:03.267Z,978.33
2022-10-23T07:26:03.179Z,978.52
2022-10-23T07:27:03.274Z,978.49
2022-10-23T07:28:03.200Z,978.49
2022-10-23T07:29:03.302Z,978.49
2022-10-23T07:30:03.195Z,978.51
2022-10-23T07:31:03.312Z,978.63
2022-10-23T07:32:03.303Z,978.54
2022-10-23T07:33:03.353Z,978.63
2022-10-23T07:34:03.829Z,978.54
2022-10-23T07:35:04.062Z,978.65
2022-10-23T07:36:02.916Z,978.54
2022-10-23T07:37:02.967Z,978.48
2022-10-23T07:38:03.169Z,978.45
2022-10-23T07:39:03.065Z,978.40
2022-10-23T07:40:03.258Z,978.37
2022-10-23T07:41:03.063Z,978.45
2022-10-23T07:42:03.187Z,978.56
2022-10-23T07:43:03.386Z,978.45
2022-10-23T07:44:03.341Z,978.45
2022-10-23T07:45:03.273Z,978.47
2022-10-23T07:46:03.266Z,978.40
2022-10-23T07:47:03.313Z,978.31
2022-10-23T07:48:03.527Z,978.44
2022-10-23T07:49:03.568Z,978.42
2022-10-23T07:50:03.627Z,978.31
2022-10-23T07:51:03.762Z,978.44
2022-10-23T07:53:03.751Z,978.44
2022-10-23T07:54:03.774Z,978.36
2022-10-23T07:55:03.771Z,978.41
2022-10-23T07:56:03.800Z,978.35
2022-10-23T07:57:03.900Z,978.24
2022-10-23T07:58:03.868Z,978.35
2022-10-23T07:59:02.972Z,978.24
2022-10-23T08:00:02.943Z,978.23
2022-10-23T08:01:03.131Z,978.26
2022-10-23T08:02:03.064Z,978.40
2022-10-23T08:03:03.012Z,978.29
2022-10-23T08:04:03.048Z,978.26
2022-10-23T08:05:02.975Z,978.28
2022-10-23T08:06:03.061Z,978.31
2022-10-23T08:07:02.985Z,978.31
2022-10-23T08:08:02.996Z,978.33
2022-10-23T08:09:07.130Z,978.30
2022-10-23T08:10:03.056Z,978.22
2022-10-23T08:11:03.189Z,978.42
2022-10-23T08:12:03.587Z,978.33
2022-10-23T08:13:03.705Z,978.38
2022-10-23T08:14:03.697Z,978.27
2022-10-23T08:15:03.747Z,978.33
2022-10-23T08:16:03.642Z,978.27
2022-10-23T08:17:03.840Z,978.27
2022-10-23T08:18:03.683Z,978.24
2022-10-23T08:19:03.791Z,978.12
2022-10-23T08:20:03.876Z,978.20
2022-10-23T08:21:03.788Z,978.18
2022-10-23T08:22:03.533Z,978.06
2022-10-23T08:23:03.619Z,978.20
2022-10-23T08:24:03.221Z,978.20
2022-10-23T08:25:03.135Z,977.97
2022-10-23T08:26:03.143Z,978.23
2022-10-23T08:27:03.134Z,978.17
2022-10-23T08:28:06.563Z,978.14
2022-10-23T08:29:03.062Z,978.14
2022-10-23T08:30:03.240Z,978.14
2022-10-23T08:31:03.215Z,978.16
2022-10-23T08:32:03.091Z,978.19
2022-10-23T08:33:03.130Z,978.07
2022-10-23T08:34:03.240Z,978.22
2022-10-23T08:35:03.379Z,978.13
2022-10-23T08:36:03.423Z,978.13
2022-10-23T08:37:03.603Z,977.96
2022-10-23T08:38:03.581Z,978.01
2022-10-23T08:39:03.601Z,978.10
2022-10-23T08:40:03.526Z,978.10
2022-10-23T08:41:03.542Z,978.18
2022-10-23T08:42:03.750Z,978.09
2022-10-23T08:43:03.671Z,978.32
2022-10-23T08:44:03.859Z,978.32
2022-10-23T08:45:03.885Z,978.35
2022-10-23T08:46:07.369Z,978.32
2022-10-23T08:47:02.899Z,978.32
2022-10-23T08:48:03.054Z,978.32
2022-10-23T08:49:03.020Z,978.29
2022-10-23T08:50:03.051Z,978.26
2022-10-23T08:51:03.044Z,978.44
2022-10-23T08:52:03.132Z,978.34
2022-10-23T08:53:03.033Z,978.25
2022-10-23T08:54:02.996Z,978.13
2022-10-23T08:55:02.933Z,978.33
2022-10-23T08:56:03.937Z,978.27
2022-10-23T08:57:02.974Z,978.21
2022-10-23T08:58:03.106Z,978.18
2022-10-23T08:59:03.191Z,978.15
2022-10-23T09:00:02.932Z,978.29
2022-10-23T09:01:03.359Z,978.26
2022-10-23T09:02:03.288Z,978.15
2022-10-23T09:03:03.030Z,978.26
2022-10-23T09:04:03.164Z,978.14
2022-10-23T09:05:03.225Z,978.17
2022-10-23T09:06:03.382Z,978.22
2022-10-23T09:07:03.357Z,978.25
2022-10-23T09:08:03.626Z,978.22
2022-10-23T09:09:03.614Z,978.36
2022-10-23T09:10:03.605Z,978.22
2022-10-23T09:11:03.870Z,978.33
2022-10-23T09:12:03.750Z,978.24
2022-10-23T09:13:03.206Z,978.21
2022-10-23T09:14:03.364Z,978.21
2022-10-23T09:15:03.407Z,978.12
2022-10-23T09:16:03.452Z,978.14
2022-10-23T09:17:03.696Z,978.06
2022-10-23T09:18:03.580Z,978.14
2022-10-23T09:19:03.505Z,978.20
2022-10-23T09:20:03.601Z,978.28
2022-10-23T09:21:03.683Z,978.36
2022-10-23T09:22:03.632Z,978.33
2022-10-23T09:23:03.633Z,978.16
2022-10-23T09:24:03.657Z,978.24
2022-10-23T09:25:03.648Z,978.15
2022-10-23T09:26:03.777Z,978.18
2022-10-23T09:28:06.110Z,978.23
2022-10-23T09:29:03.761Z,978.20
2022-10-23T09:30:03.848Z,978.23
2022-10-23T09:31:03.028Z,978.17
2022-10-23T09:32:02.985Z,978.28
2022-10-23T09:33:02.958Z,978.20
2022-10-23T09:34:03.007Z,978.37
2022-10-23T09:35:03.081Z,978.37
2022-10-23T09:36:02.943Z,978.36
2022-10-23T09:37:02.911Z,978.44
2022-10-23T09:38:03.893Z,978.33
2022-10-23T09:39:03.782Z,978.44
2022-10-23T09:40:03.906Z,978.30
2022-10-23T09:41:03.880Z,978.49
2022-10-23T09:42:03.067Z,978.38
2022-10-23T09:43:03.055Z,978.44
2022-10-23T09:44:03.146Z,978.38
2022-10-23T09:45:03.118Z,978.38
2022-10-23T09:46:03.077Z,978.45
2022-10-23T09:47:03.084Z,978.51
2022-10-23T09:48:03.161Z,978.51
2022-10-23T09:49:06.025Z,978.51
2022-10-23T09:50:03.126Z,978.40
2022-10-23T09:51:03.201Z,978.29
2022-10-23T09:52:03.179Z,978.32
2022-10-23T09:53:03.184Z,978.43
2022-10-23T09:54:03.185Z,978.31
2022-10-23T09:55:03.204Z,978.45
2022-10-23T09:56:03.138Z,978.43
2022-10-23T09:57:03.219Z,978.50
2022-10-23T09:58:03.168Z,978.47
2022-10-23T09:59:03.215Z,978.39
2022-10-23T10:00:03.301Z,978.44
2022-10-23T10:01:03.637Z,978.50
2022-10-23T10:02:03.605Z,978.47
2022-10-23T10:03:03.277Z,978.47
2022-10-23T10:04:03.312Z,978.42
2022-10-23T10:05:03.247Z,978.39
2022-10-23T10:06:03.288Z,978.36
2022-10-23T10:07:03.248Z,978.49
2022-10-23T10:08:03.307Z,978.41
2022-10-23T10:09:03.213Z,978.44
2022-10-23T10:10:03.355Z,978.45
2022-10-23T10:11:03.353Z,978.60
2022-10-23T10:12:03.357Z,978.40
2022-10-23T10:13:03.274Z,978.43
2022-10-23T10:14:03.197Z,978.37
2022-10-23T10:15:03.221Z,978.37
2022-10-23T10:16:03.236Z,978.45
2022-10-23T10:17:03.166Z,978.62
2022-10-23T10:18:03.282Z,978.53
2022-10-23T10:19:03.377Z,978.47
2022-10-23T10:20:07.304Z,978.39
2022-10-23T10:21:03.322Z,978.47
2022-10-23T10:22:03.326Z,978.52
2022-10-23T10:23:03.281Z,978.39
2022-10-23T10:24:03.287Z,978.42
2022-10-23T10:25:03.367Z,978.33
2022-10-23T10:26:03.443Z,978.38
2022-10-23T10:27:03.429Z,978.35
2022-10-23T10:28:03.450Z,978.38
2022-10-23T10:29:03.589Z,978.41
2022-10-23T10:30:03.645Z,978.23
2022-10-23T10:31:03.627Z,978.26
2022-10-23T10:32:03.646Z,978.37
2022-10-23T10:33:03.838Z,978.34
2022-10-23T10:34:03.831Z,978.40
2022-10-23T10:35:03.781Z,978.34
2022-10-23T10:36:03.835Z,978.37
2022-10-23T10:37:03.815Z,978.36
2022-10-23T10:38:03.814Z,978.33
2022-10-23T10:39:03.757Z,978.33
2022-10-23T10:40:03.751Z,978.30
2022-10-23T10:41:03.736Z,978.24
2022-10-23T10:42:03.834Z,978.24
2022-10-23T10:43:02.938Z,978.21
2022-10-23T10:44:02.988Z,978.32
2022-10-23T10:45:02.948Z,978.23
2022-10-23T10:46:04.072Z,978.26
2022-10-23T10:47:03.879Z,978.32
2022-10-23T10:48:03.835Z,978.23
2022-10-23T10:49:03.779Z,978.31
2022-10-23T10:50:03.778Z,978.28
2022-10-23T10:51:03.808Z,978.31
2022-10-23T10:52:03.834Z,978.31
2022-10-23T10:53:03.829Z,978.22
2022-10-23T10:54:03.830Z,978.34
2022-10-23T10:55:03.782Z,978.31
2022-10-23T10:56:03.974Z,978.31
2022-10-23T10:57:03.893Z,978.39
2022-10-23T10:58:03.831Z,978.36
2022-10-23T10:59:03.879Z,978.47
2022-10-23T11:00:02.939Z,978.36
2022-10-23T11:01:03.252Z,978.42
2022-10-23T11:02:03.290Z,978.49
2022-10-23T11:03:03.205Z,978.42
2022-10-23T11:04:03.055Z,978.18
2022-10-23T11:05:03.103Z,978.15
2022-10-23T11:06:03.158Z,978.21
2022-10-23T11:07:03.100Z,978.27
2022-10-23T11:08:03.124Z,978.21
2022-10-23T11:09:20.497Z,978.18
2022-10-23T11:10:03.233Z,978.06
2022-10-23T11:11:03.229Z,978.18
2022-10-23T11:12:03.351Z,978.18
2022-10-23T11:13:03.241Z,978.03
2022-10-23T11:14:03.210Z,977.95
2022-10-23T11:15:03.260Z,978.15
2022-10-23T11:16:03.261Z,978.20
2022-10-23T11:17:03.397Z,978.03
2022-10-23T11:18:03.338Z,978.03
2022-10-23T11:19:03.463Z,977.97
2022-10-23T11:20:03.334Z,977.97
2022-10-23T11:21:03.375Z,978.06
2022-10-23T11:22:03.490Z,977.88
2022-10-23T11:23:03.454Z,977.88
2022-10-23T11:24:03.672Z,978.03
2022-10-23T11:25:03.573Z,978.08
2022-10-23T11:26:03.519Z,978.00
2022-10-23T11:27:03.567Z,977.97
2022-10-23T11:28:10.290Z,977.91
2022-10-23T11:29:03.547Z,977.85
2022-10-23T11:30:03.577Z,977.82
2022-10-23T11:31:03.590Z,977.99
2022-10-23T11:32:03.478Z,977.85
2022-10-23T11:33:03.489Z,977.94
2022-10-23T11:34:03.518Z,977.73
2022-10-23T11:35:03.578Z,977.91
2022-10-23T11:36:03.463Z,977.87
2022-10-23T11:37:03.438Z,977.76
2022-10-23T11:38:03.555Z,977.76
2022-10-23T11:39:03.556Z,977.93
2022-10-23T11:40:03.584Z,977.81
2022-10-23T11:41:03.570Z,977.90
2022-10-23T11:42:03.590Z,977.84
2022-10-23T11:43:03.579Z,977.84
2022-10-23T11:44:03.046Z,977.87
2022-10-23T11:45:03.789Z,977.84
2022-10-23T11:46:03.880Z,977.84
2022-10-23T11:47:02.997Z,977.87
2022-10-23T11:48:03.088Z,977.84
2022-10-23T11:49:03.149Z,977.81
2022-10-23T11:50:03.129Z,977.75
2022-10-23T11:51:05.534Z,977.83
2022-10-23T11:52:03.155Z,977.77
2022-10-23T11:53:15.307Z,977.77
2022-10-23T11:54:03.231Z,977.83
2022-10-23T11:55:03.457Z,977.69
2022-10-23T11:56:03.444Z,977.77
2022-10-23T11:57:03.471Z,977.66
2022-10-23T11:58:03.664Z,977.77
2022-10-23T11:59:03.618Z,977.71
2022-10-23T12:00:03.663Z,977.60
2022-10-23T12:01:03.905Z,977.74
2022-10-23T12:02:03.906Z,977.71
2022-10-23T12:03:04.002Z,977.74
2022-10-23T12:04:03.906Z,977.60
2022-10-23T12:05:02.997Z,977.48
2022-10-23T12:06:02.957Z,977.43
2022-10-23T12:07:03.024Z,977.48
2022-10-23T12:08:02.930Z,977.45
2022-10-23T12:09:03.084Z,977.39
2022-10-23T12:10:03.229Z,977.34
2022-10-23T12:11:03.143Z,977.37
2022-10-23T12:12:03.199Z,977.28
2022-10-23T12:13:03.268Z,977.42
2022-10-23T12:14:03.383Z,977.33
2022-10-23T12:15:03.294Z,977.36
2022-10-23T12:16:03.278Z,977.25
2022-10-23T12:17:03.358Z,977.36
2022-10-23T12:18:03.365Z,977.45
2022-10-23T12:19:03.387Z,977.45
2022-10-23T12:20:03.405Z,977.21
2022-10-23T12:21:03.310Z,977.39
2022-10-23T12:22:03.362Z,977.33
2022-10-23T12:23:03.391Z,977.36
2022-10-23T12:24:03.349Z,977.35
2022-10-23T12:25:03.220Z,977.35
2022-10-23T12:26:03.192Z,977.18
2022-10-23T12:27:03.167Z,977.21
2022-10-23T12:28:03.147Z,977.29
2022-10-23T12:29:03.183Z,977.18
2022-10-23T12:30:03.167Z,977.24
2022-10-23T12:31:03.194Z,977.29
2022-10-23T12:32:03.117Z,977.32
2022-10-23T12:33:03.203Z,977.24